Flight Track Log - Related Links

Times and Time Zones

All times are in EDT time to prevent confusion due to time zone crossing. See the SWA1742 flight status page for this flight to view local times or setup timezone preferences in your user account.

Time Position Orientation Groundspeed Altitude Reporting Facility
EDT Latitude Longitude Course Direction KTS MPH feet Rate Location/Type
Mon 10:30:27 AM 37.4000 -121.9667 360° North 182 209 2,200  Level Northern Cal TRACON
Mon 10:31:21 AM 37.4333 -121.9667 360° North 223 257 4,800 1,474 Climbing Northern Cal TRACON
Mon 10:32:21 AM 37.4000 -121.9000 122° Southeast 236 272 5,000 1,571 Climbing Northern Cal TRACON
Mon 10:33:27 AM 37.3667 -121.8167 117° Southeast 240 276 8,100 2,628 Climbing Northern Cal TRACON
Mon 10:34:22 AM 37.3167 -121.7667 141° Southeast 288 331 10,300 2,452 Climbing Northern Cal TRACON
Mon 10:35:22 AM 37.2500 -121.6833 135° Southeast 337 388 12,800 2,811 Climbing Northern Cal TRACON
Mon 10:36:45 AM 37.1531 -121.5889 142° Southeast 355 409 17,000 3,021 Climbing Oakland Center
Mon 10:37:47 AM 37.0689 -121.4972 139° Southeast 370 426 20,100 2,878 Climbing Oakland Center
Mon 10:38:48 AM 36.9847 -121.4044 139° Southeast 397 457 22,900 2,508 Climbing Oakland Center
Mon 10:39:49 AM 36.8958 -121.3094 139° Southeast 418 481 25,200 2,311 Climbing Oakland Center
Mon 10:40:50 AM 36.7972 -121.2064 140° Southeast 439 505 27,600 2,213 Climbing Oakland Center
Mon 10:41:51 AM 36.7022 -121.1019 139° Southeast 452 520 29,700 2,000 Climbing Oakland Center
Mon 10:42:53 AM 36.6050 -120.9956 139° Southeast 459 528 31,700 1,805 Climbing Oakland Center
Mon 10:43:54 AM 36.5047 -120.8878 139° Southeast 472 543 33,400 1,918 Climbing Oakland Center
Mon 10:44:55 AM 36.3839 -120.7594 139° Southeast 474 545 35,600 1,869 Climbing Oakland Center
Mon 10:45:56 AM 36.2836 -120.6528 139° Southeast 476 548 37,200 1,475 Climbing Oakland Center
Mon 10:46:57 AM 36.1847 -120.5447 139° Southeast 475 547 38,600 1,180 Climbing Oakland Center
Mon 10:47:58 AM 36.0828 -120.4369 139° Southeast 476 548 39,600 1,024 Climbing Oakland Center
Mon 10:49:00 AM 35.9814 -120.3289 139° Southeast 478 550 40,700 683 Climbing Oakland Center
Mon 10:50:01 AM 35.8789 -120.2222 140° Southeast 479 551 41,000 148 Climbing Oakland Center
Mon 10:51:02 AM 35.7767 -120.1136 139° Southeast 479 551 41,000  Level Oakland Center
Mon 10:52:03 AM 35.6747 -120.0061 139° Southeast 479 551 41,000  Level Oakland Center
Mon 10:53:04 AM 35.5664 -119.9083 144° Southeast 479 551 41,000  Level Oakland Center
Mon 10:54:05 AM 35.4558 -119.8139 145° Southeast 478 550 41,000  Level Oakland Center
Mon 10:55:07 AM 35.3467 -119.7186 145° Southeast 479 551 41,000 -98 Level Oakland Center
Mon 10:56:08 AM 35.2372 -119.6244 145° Southeast 479 551 40,800 -1,180 Descending Oakland Center
Mon 10:57:09 AM 35.1292 -119.5331 145° Southeast 476 548 38,600 -2,391 Descending Oakland Center
Mon 10:58:21 AM 35.0008 -119.4222 145° Southeast 473 544 35,500 -2,418 Descending Los Angeles Center
Mon 10:59:23 AM 34.8928 -119.3306 145° Southeast 472 543 33,200 -1,645 Descending Los Angeles Center
Mon 11:00:25 AM 34.7639 -119.2206 145° Southeast 471 542 32,100 -1,561 Descending Los Angeles Center
Mon 11:01:26 AM 34.6539 -119.1278 145° Southeast 478 550 30,000 -2,195 Descending Los Angeles Center
Mon 11:02:28 AM 34.5428 -119.0389 147° Southeast 464 534 27,600 -2,274 Descending Los Angeles Center
Mon 11:03:30 AM 34.4397 -118.9519 145° Southeast 455 524 25,300 -2,226 Descending Los Angeles Center
Mon 11:04:32 AM 34.3336 -118.8739 149° Southeast 444 511 23,000 -2,177 Descending Los Angeles Center
Mon 11:05:34 AM 34.2200 -118.8308 163° South 428 493 20,800 -2,129 Descending Los Angeles Center
Mon 11:06:36 AM 34.1125 -118.7908 163° South 407 468 18,600 -2,274 Descending Los Angeles Center
Mon 11:07:38 AM 33.9950 -118.7481 163° South 388 447 16,100 -2,226 Descending Los Angeles Center
Mon 11:08:40 AM 33.8897 -118.7108 164° South 366 421 14,000 -1,016 Descending Los Angeles Center
Mon 11:09:42 AM 33.8006 -118.6783 163° South 347 399 14,000 -145 Level Los Angeles Center
Mon 11:10:44 AM 33.7114 -118.6456 163° South 339 390 13,700 -629 Descending Los Angeles Center
Mon 11:11:46 AM 33.6211 -118.6139 164° South 341 392 12,700 -1,065 Descending Los Angeles Center
Mon 11:12:48 AM 33.5256 -118.5483 150° Southeast 339 390 11,500 -1,065 Descending Los Angeles Center
Mon 11:13:50 AM 33.4522 -118.4844 144° Southeast 333 383 10,500 -919 Descending Los Angeles Center
Mon 11:14:52 AM 33.4053 -118.4081 126° Southeast 303 349 9,600 -919 Descending Los Angeles Center
Mon 11:15:54 AM 33.4403 -118.3289 62° Northeast 289 333 8,600 -1,161 Descending Los Angeles Center
Mon 11:16:56 AM 33.4886 -118.2561 51° Northeast 286 329 7,200 -1,392 Descending Los Angeles Center
Mon 11:17:59 AM 33.5458 -118.1706 51° Northeast 282 325 5,700 -1,056 Descending Los Angeles Center
Mon 11:19:01 AM 33.5903 -118.1025 52° Northeast 272 313 5,000 -279 Descending Los Angeles Center
Mon 11:20:08 AM 33.6333 -118.0500 45° Northeast 200 230 5,100 48 Climbing Southern California TRACON
Mon 11:21:07 AM 33.6833 -118.0000 40° Northeast 196 226 5,100 -50 Level Southern California TRACON
Mon 11:22:07 AM 33.7167 -117.9500 51° Northeast 197 227 5,000 -650 Descending Southern California TRACON
Mon 11:23:07 AM 33.7667 -117.9167 29° Northeast 191 220 3,800 -1,053 Descending Southern California TRACON
Mon 11:24:01 AM 33.7833 -117.8667 68° East 203 234 3,000 -895 Descending Southern California TRACON
Mon 11:25:01 AM 33.7500 -117.8333 140° Southeast 185 213 2,100 -1,095 Descending Southern California TRACON
Mon 11:26:07 AM 33.7000 -117.8500 195° South 143 165 700 -1,273 Descending Southern California TRACON
Mon 11:30:00 AM 33.6757 -117.8682 132° Southeast  Level Estimated

Login

Don't have an account? Register now (free) for customized features, flight alerts, and more!